»·PEaware :: UPS102 KSFO-KSLC

UPS102 :: KSFO-KSLC

FLIGHT INFORMATION

Flight Status: Arrived
Operator:
United Parcel Service
More flights by this operator :: More flights under this callsign
Pilot: Cole F. (14495)
Aircraft: BOEING 767-300
(B763)
More flights by this aircraft type
Origin: KSFO San Francisco Intl
United States
Destination: KSLC Salt Lake City Intl
United States
More flights between these airports :: More routes between these airports
Route: TRUKN2 MOGEE Q124 BVL WAATS5
File this flight plan on PilotEdge
Remarks:
Altitude:
(Current/Filed)
35,000ft
Speed:
(Current/Filed)
468kts
Departed: 08-Nov-18 11:49 AM
Arrived: 08-Nov-18 01:14 PM
Distance/Time
Traveled:
519nm/1:24
Distance/Time
To Go:
Arrived

Flight Plot

Page will automatically refresh every two minutes.

Flight plan parsing failed; only flown route is shown


Map Options




Map Legend


Flown Route
Filed Route
Departure Airport
Arrival Airport
Navaid (VOR, NDB)
Fix

Horizontal Profiles

Position Reports

Time Latitude Longitude Heading Altitude Ground
Speed
08-Nov-18 11:22 37.636618 -122.388019 60 23ft 0kts
08-Nov-18 11:23 37.636618 -122.388019 60 23ft 0kts
08-Nov-18 11:24 37.636618 -122.388019 60 23ft 0kts
08-Nov-18 11:25 37.636618 -122.388019 60 23ft 0kts
08-Nov-18 11:26 37.636618 -122.388019 60 23ft 0kts
08-Nov-18 11:27 37.636618 -122.388019 60 23ft 0kts
08-Nov-18 11:28 37.636618 -122.388019 60 23ft 0kts
08-Nov-18 11:29 37.636618 -122.388019 60 23ft 0kts
08-Nov-18 11:30 37.636618 -122.388019 60 23ft 0kts
08-Nov-18 11:31 37.636618 -122.388019 60 23ft 0kts
08-Nov-18 11:32 37.636618 -122.388019 60 23ft 0kts
08-Nov-18 11:33 37.636524 -122.388224 60 23ft 2kts
08-Nov-18 11:34 37.636586 -122.388920 136 23ft 2kts
08-Nov-18 11:35 37.636343 -122.388761 150 23ft 0kts
08-Nov-18 11:36 37.636342 -122.388761 150 23ft 0kts
08-Nov-18 11:37 37.636342 -122.388761 150 23ft 0kts
08-Nov-18 11:38 37.635967 -122.388484 148 23ft 7kts
08-Nov-18 11:39 37.634087 -122.390389 247 23ft 9kts
08-Nov-18 11:40 37.633826 -122.391121 241 23ft 0kts
08-Nov-18 11:41 37.633375 -122.391726 205 23ft 7kts
08-Nov-18 11:42 37.631233 -122.392554 194 23ft 9kts
08-Nov-18 11:43 37.628843 -122.389950 117 23ft 15kts
08-Nov-18 11:44 37.626783 -122.385037 117 23ft 16kts
08-Nov-18 11:45 37.624498 -122.379597 117 23ft 17kts
08-Nov-18 11:46 37.622089 -122.373843 117 23ft 18kts
08-Nov-18 11:47 37.619826 -122.368431 117 23ft 19kts
08-Nov-18 11:48 37.617522 -122.362973 118 23ft 17kts
08-Nov-18 11:49 37.615157 -122.357324 118 23ft 14kts
08-Nov-18 11:50 37.614628 -122.356724 157 23ft 0kts
08-Nov-18 11:51 37.614567 -122.356716 179 23ft 2kts
08-Nov-18 11:52 37.614760 -122.360047 296 23ft 54kts
08-Nov-18 11:53 37.633856 -122.403408 305 1258ft 172kts
08-Nov-18 11:54 37.671580 -122.382209 85 2751ft 226kts
08-Nov-18 11:55 37.689781 -122.301911 68 5883ft 247kts
08-Nov-18 11:56 37.716648 -122.220604 52 8929ft 259kts
08-Nov-18 11:57 37.775906 -122.162268 34 11048ft 304kts
08-Nov-18 11:58 37.848583 -122.096227 33 13085ft 357kts
08-Nov-18 11:59 37.920992 -122.007286 45 16245ft 377kts
08-Nov-18 12:00 37.990636 -121.904646 45 19104ft 395kts
08-Nov-18 12:01 38.063469 -121.796797 44 21724ft 414kts
08-Nov-18 12:02 38.134909 -121.690648 44 23998ft 432kts
08-Nov-18 12:03 38.214415 -121.572100 43 26268ft 453kts
08-Nov-18 12:04 38.297662 -121.447495 43 28348ft 473kts
08-Nov-18 12:05 38.382106 -121.315824 45 30200ft 495kts
08-Nov-18 12:06 38.467634 -121.177544 45 32290ft 501kts
08-Nov-18 12:07 38.553751 -121.037808 44 33943ft 505kts
08-Nov-18 12:08 38.640737 -120.896090 43 35178ft 508kts
08-Nov-18 12:09 38.727308 -120.754434 43 35183ft 507kts
08-Nov-18 12:10 38.813921 -120.612064 43 35183ft 507kts
08-Nov-18 12:11 38.900041 -120.469891 43 35190ft 505kts
08-Nov-18 12:12 38.981966 -120.334042 45 35291ft 486kts
08-Nov-18 12:13 39.063589 -120.198170 47 35362ft 480kts
08-Nov-18 12:14 39.144935 -120.062113 47 35366ft 481kts
08-Nov-18 12:15 39.226123 -119.925760 47 35387ft 480kts
08-Nov-18 12:16 39.307077 -119.789224 47 35430ft 480kts
08-Nov-18 12:17 39.387652 -119.652748 47 35446ft 480kts
08-Nov-18 12:18 39.468611 -119.515034 47 35445ft 482kts
08-Nov-18 12:19 39.549588 -119.376678 47 35455ft 483kts
08-Nov-18 12:20 39.630035 -119.238631 47 35452ft 483kts
08-Nov-18 12:21 39.710389 -119.100137 47 35465ft 481kts
08-Nov-18 12:22 39.790736 -118.961060 47 35464ft 482kts
08-Nov-18 12:23 39.871068 -118.821275 48 35472ft 484kts
08-Nov-18 12:24 39.937220 -118.667487 56 35477ft 490kts
08-Nov-18 12:25 40.000966 -118.511279 56 35477ft 490kts
08-Nov-18 12:26 40.064510 -118.354291 56 35477ft 490kts
08-Nov-18 12:27 40.126149 -118.201181 57 35481ft 491kts
08-Nov-18 12:28 40.189384 -118.043146 58 35481ft 491kts
08-Nov-18 12:29 40.233619 -117.872285 67 35482ft 499kts
08-Nov-18 12:30 40.274080 -117.699159 68 35483ft 499kts
08-Nov-18 12:31 40.314305 -117.525073 68 35484ft 501kts
08-Nov-18 12:32 40.354176 -117.351062 68 35483ft 499kts
08-Nov-18 12:33 40.393563 -117.177823 68 35479ft 500kts
08-Nov-18 12:34 40.433015 -117.002953 68 35480ft 501kts
08-Nov-18 12:35 40.472383 -116.827062 68 35480ft 503kts
08-Nov-18 12:36 40.511389 -116.651390 68 35481ft 502kts
08-Nov-18 12:37 40.550100 -116.475635 68 35463ft 501kts
08-Nov-18 12:38 40.574434 -116.295474 79 35443ft 508kts
08-Nov-18 12:39 40.586559 -116.141970 80 35425ft 508kts
08-Nov-18 12:40 40.600605 -115.956681 80 35424ft 510kts
08-Nov-18 12:41 40.616147 -115.745870 80 35426ft 510kts
08-Nov-18 12:42 40.627286 -115.591358 80 35426ft 510kts
08-Nov-18 12:43 40.640407 -115.405492 80 35427ft 510kts
08-Nov-18 12:44 40.655254 -115.189832 80 35422ft 511kts
08-Nov-18 12:45 40.665763 -115.033635 81 35424ft 518kts
08-Nov-18 12:46 40.678209 -114.844037 81 35424ft 520kts
08-Nov-18 12:47 40.690340 -114.654507 81 35426ft 520kts
08-Nov-18 12:48 40.701433 -114.465141 83 35428ft 521kts
08-Nov-18 12:49 40.708176 -114.281495 83 34011ft 508kts
08-Nov-18 12:50 40.714682 -114.098995 83 31612ft 498kts
08-Nov-18 12:51 40.720825 -113.918758 83 29437ft 489kts
08-Nov-18 12:52 40.726232 -113.743927 85 27429ft 469kts
08-Nov-18 12:53 40.725949 -113.575966 85 25510ft 450kts
08-Nov-18 12:54 40.725573 -113.414654 85 23680ft 433kts
08-Nov-18 12:55 40.725061 -113.270913 86 22048ft 420kts
08-Nov-18 12:56 40.724328 -113.119651 86 20337ft 406kts
08-Nov-18 12:57 40.723437 -112.973427 87 18697ft 395kts
08-Nov-18 12:58 40.722377 -112.830305 87 17165ft 379kts
08-Nov-18 12:59 40.721196 -112.693521 87 16202ft 368kts
08-Nov-18 13:00 40.719889 -112.559379 88 15376ft 362kts
08-Nov-18 13:01 40.736083 -112.431129 75 14050ft 351kts
08-Nov-18 13:02 40.756346 -112.308545 76 12573ft 342kts
08-Nov-18 13:03 40.764924 -112.185301 92 11974ft 341kts
08-Nov-18 13:04 40.709490 -112.090939 161 11986ft 347kts
08-Nov-18 13:05 40.613786 -112.075964 175 11530ft 346kts
08-Nov-18 13:06 40.527105 -112.065734 175 10959ft 289kts
08-Nov-18 13:07 40.451423 -112.056915 175 10969ft 267kts
08-Nov-18 13:08 40.404783 -112.002520 91 11034ft 251kts
08-Nov-18 13:09 40.443350 -111.941163 20 9880ft 234kts
08-Nov-18 13:10 40.503913 -111.942278 354 8959ft 193kts
08-Nov-18 13:11 40.557528 -111.948150 354 8491ft 190kts
08-Nov-18 13:12 40.605087 -111.953548 353 7549ft 166kts
08-Nov-18 13:13 40.650617 -111.958784 353 6653ft 163kts
08-Nov-18 13:14 40.694487 -111.963837 353 5763ft 145kts
08-Nov-18 13:15 40.735047 -111.968291 353 5014ft 148kts
08-Nov-18 13:16 40.775317 -111.973182 353 4262ft 142kts
08-Nov-18 13:17 40.796434 -111.975653 353 4238ft 16kts
08-Nov-18 13:18 40.797891 -111.978961 354 4238ft 13kts
08-Nov-18 13:19 40.800989 -111.980277 355 4238ft 13kts

Navigation Log

Ident Type
Flight plan parsing failed, navigation log unavailable